sensor_id;sensor_type;location;lat;lon;timestamp;temperature;humidity
7331;DHT22;3706;49.198;7.064;2022-12-17T00:02:20;-9.70;99.90
7331;DHT22;3706;49.198;7.064;2022-12-17T00:05:07;-9.70;99.90
7331;DHT22;3706;49.198;7.064;2022-12-17T00:07:55;-9.70;99.90
7331;DHT22;3706;49.198;7.064;2022-12-17T00:10:40;-9.50;99.90
7331;DHT22;3706;49.198;7.064;2022-12-17T00:13:24;-9.60;99.90
7331;DHT22;3706;49.198;7.064;2022-12-17T00:16:09;-9.60;99.90
7331;DHT22;3706;49.198;7.064;2022-12-17T00:18:53;-9.80;99.90
7331;DHT22;3706;49.198;7.064;2022-12-17T00:21:38;-9.70;99.90
7331;DHT22;3706;49.198;7.064;2022-12-17T00:24:23;-9.70;99.90
7331;DHT22;3706;49.198;7.064;2022-12-17T00:27:07;-9.70;99.90
7331;DHT22;3706;49.198;7.064;2022-12-17T00:29:51;-9.50;99.90
7331;DHT22;3706;49.198;7.064;2022-12-17T00:32:32;-9.30;99.90
7331;DHT22;3706;49.198;7.064;2022-12-17T00:35:17;-9.20;99.90
7331;DHT22;3706;49.198;7.064;2022-12-17T00:38:02;-9.20;99.90
7331;DHT22;3706;49.198;7.064;2022-12-17T00:40:49;-9.30;99.90
7331;DHT22;3706;49.198;7.064;2022-12-17T00:43:34;-9.50;99.90
7331;DHT22;3706;49.198;7.064;2022-12-17T00:46:18;-9.50;99.90
7331;DHT22;3706;49.198;7.064;2022-12-17T00:49:02;-9.60;99.90
7331;DHT22;3706;49.198;7.064;2022-12-17T00:51:46;-9.60;99.90
7331;DHT22;3706;49.198;7.064;2022-12-17T00:54:32;-9.70;99.90
7331;DHT22;3706;49.198;7.064;2022-12-17T00:57:31;-9.80;99.90
7331;DHT22;3706;49.198;7.064;2022-12-17T01:00:15;-9.80;99.90
7331;DHT22;3706;49.198;7.064;2022-12-17T01:03:04;-9.70;99.90
7331;DHT22;3706;49.198;7.064;2022-12-17T01:05:49;-9.60;99.90
7331;DHT22;3706;49.198;7.064;2022-12-17T01:08:33;-9.60;99.90
7331;DHT22;3706;49.198;7.064;2022-12-17T01:11:18;-9.60;99.90
7331;DHT22;3706;49.198;7.064;2022-12-17T01:14:03;-9.50;99.90
7331;DHT22;3706;49.198;7.064;2022-12-17T01:16:47;-9.60;99.90
7331;DHT22;3706;49.198;7.064;2022-12-17T01:19:32;-9.70;99.90
7331;DHT22;3706;49.198;7.064;2022-12-17T01:22:16;-9.70;99.90
7331;DHT22;3706;49.198;7.064;2022-12-17T01:25:00;-9.60;99.90
7331;DHT22;3706;49.198;7.064;2022-12-17T01:27:48;-9.70;99.90
7331;DHT22;3706;49.198;7.064;2022-12-17T01:30:34;-9.70;99.90
7331;DHT22;3706;49.198;7.064;2022-12-17T01:33:19;-9.80;99.90
7331;DHT22;3706;49.198;7.064;2022-12-17T01:36:03;-9.90;99.90
7331;DHT22;3706;49.198;7.064;2022-12-17T01:38:53;-10.00;99.90
7331;DHT22;3706;49.198;7.064;2022-12-17T01:41:38;-10.00;99.90
7331;DHT22;3706;49.198;7.064;2022-12-17T01:44:53;-9.90;99.90
7331;DHT22;3706;49.198;7.064;2022-12-17T01:47:40;-9.90;99.90
7331;DHT22;3706;49.198;7.064;2022-12-17T01:50:28;-10.00;99.90
7331;DHT22;3706;49.198;7.064;2022-12-17T01:53:14;-10.10;99.90
7331;DHT22;3706;49.198;7.064;2022-12-17T01:56:00;-10.20;99.90
7331;DHT22;3706;49.198;7.064;2022-12-17T01:58:45;-10.20;99.90
7331;DHT22;3706;49.198;7.064;2022-12-17T02:01:31;-10.20;99.90
7331;DHT22;3706;49.198;7.064;2022-12-17T02:04:15;-10.20;99.90
7331;DHT22;3706;49.198;7.064;2022-12-17T02:07:19;-10.10;99.90
7331;DHT22;3706;49.198;7.064;2022-12-17T02:10:15;-9.80;99.90
7331;DHT22;3706;49.198;7.064;2022-12-17T02:13:09;-9.60;99.90
7331;DHT22;3706;49.198;7.064;2022-12-17T02:15:59;-9.80;99.90
7331;DHT22;3706;49.198;7.064;2022-12-17T02:18:50;-9.90;99.90
7331;DHT22;3706;49.198;7.064;2022-12-17T02:21:36;-10.00;99.90
7331;DHT22;3706;49.198;7.064;2022-12-17T02:24:30;-10.10;99.90
7331;DHT22;3706;49.198;7.064;2022-12-17T02:27:18;-10.30;99.90
7331;DHT22;3706;49.198;7.064;2022-12-17T02:30:05;-10.30;99.90
7331;DHT22;3706;49.198;7.064;2022-12-17T02:32:50;-10.30;99.90
7331;DHT22;3706;49.198;7.064;2022-12-17T02:35:40;-10.40;99.90
7331;DHT22;3706;49.198;7.064;2022-12-17T02:38:27;-10.50;99.90
7331;DHT22;3706;49.198;7.064;2022-12-17T02:41:15;-10.60;99.90
7331;DHT22;3706;49.198;7.064;2022-12-17T02:44:02;-10.60;99.90
7331;DHT22;3706;49.198;7.064;2022-12-17T02:46:47;-10.60;99.90
7331;DHT22;3706;49.198;7.064;2022-12-17T02:49:32;-10.60;99.90
7331;DHT22;3706;49.198;7.064;2022-12-17T02:52:18;-10.50;99.90
7331;DHT22;3706;49.198;7.064;2022-12-17T02:55:04;-10.40;99.90
7331;DHT22;3706;49.198;7.064;2022-12-17T02:57:49;-10.20;99.90
7331;DHT22;3706;49.198;7.064;2022-12-17T03:00:34;-10.10;99.90
7331;DHT22;3706;49.198;7.064;2022-12-17T03:03:19;-10.10;99.90
7331;DHT22;3706;49.198;7.064;2022-12-17T03:06:03;-10.10;99.90
7331;DHT22;3706;49.198;7.064;2022-12-17T03:08:48;-10.10;99.90
7331;DHT22;3706;49.198;7.064;2022-12-17T03:11:33;-9.90;99.90
7331;DHT22;3706;49.198;7.064;2022-12-17T03:14:17;-9.90;99.90
7331;DHT22;3706;49.198;7.064;2022-12-17T03:17:02;-10.00;99.90
7331;DHT22;3706;49.198;7.064;2022-12-17T03:19:47;-10.00;99.90
7331;DHT22;3706;49.198;7.064;2022-12-17T03:22:31;-10.10;99.90
7331;DHT22;3706;49.198;7.064;2022-12-17T03:25:15;-10.20;99.90
7331;DHT22;3706;49.198;7.064;2022-12-17T03:28:03;-10.40;99.90
7331;DHT22;3706;49.198;7.064;2022-12-17T03:30:47;-10.40;99.90
7331;DHT22;3706;49.198;7.064;2022-12-17T03:33:29;-10.40;99.90
7331;DHT22;3706;49.198;7.064;2022-12-17T03:36:13;-10.20;99.90
7331;DHT22;3706;49.198;7.064;2022-12-17T03:38:57;-10.10;99.90
7331;DHT22;3706;49.198;7.064;2022-12-17T03:41:47;-10.00;99.90
7331;DHT22;3706;49.198;7.064;2022-12-17T03:44:46;-10.00;99.90
7331;DHT22;3706;49.198;7.064;2022-12-17T03:47:30;-10.30;99.90
7331;DHT22;3706;49.198;7.064;2022-12-17T03:50:16;-10.40;99.90
7331;DHT22;3706;49.198;7.064;2022-12-17T03:53:02;-10.50;99.90
7331;DHT22;3706;49.198;7.064;2022-12-17T03:55:47;-10.60;99.90
7331;DHT22;3706;49.198;7.064;2022-12-17T03:58:31;-10.70;99.90
7331;DHT22;3706;49.198;7.064;2022-12-17T04:01:15;-10.70;99.90
7331;DHT22;3706;49.198;7.064;2022-12-17T04:03:59;-10.70;99.90
7331;DHT22;3706;49.198;7.064;2022-12-17T04:06:59;-10.60;99.90
7331;DHT22;3706;49.198;7.064;2022-12-17T04:09:43;-10.60;99.90
7331;DHT22;3706;49.198;7.064;2022-12-17T04:12:28;-10.70;99.90
7331;DHT22;3706;49.198;7.064;2022-12-17T04:15:12;-10.70;99.90
7331;DHT22;3706;49.198;7.064;2022-12-17T04:17:56;-10.50;99.90
7331;DHT22;3706;49.198;7.064;2022-12-17T04:20:40;-10.30;99.90
7331;DHT22;3706;49.198;7.064;2022-12-17T04:23:26;-10.50;99.90
7331;DHT22;3706;49.198;7.064;2022-12-17T04:26:10;-10.60;99.90
7331;DHT22;3706;49.198;7.064;2022-12-17T04:28:56;-10.50;99.90
7331;DHT22;3706;49.198;7.064;2022-12-17T04:31:41;-10.20;99.90
7331;DHT22;3706;49.198;7.064;2022-12-17T04:34:25;-9.90;99.90
7331;DHT22;3706;49.198;7.064;2022-12-17T04:37:09;-9.80;99.90
7331;DHT22;3706;49.198;7.064;2022-12-17T04:39:54;-9.80;99.90
7331;DHT22;3706;49.198;7.064;2022-12-17T04:42:39;-9.90;99.90
7331;DHT22;3706;49.198;7.064;2022-12-17T04:45:23;-10.10;99.90
7331;DHT22;3706;49.198;7.064;2022-12-17T04:48:08;-10.20;99.90
7331;DHT22;3706;49.198;7.064;2022-12-17T04:50:52;-10.30;99.90
7331;DHT22;3706;49.198;7.064;2022-12-17T04:53:37;-10.30;99.90
7331;DHT22;3706;49.198;7.064;2022-12-17T04:56:22;-10.30;99.90
7331;DHT22;3706;49.198;7.064;2022-12-17T04:59:06;-10.50;99.90
7331;DHT22;3706;49.198;7.064;2022-12-17T05:01:51;-10.50;99.90
7331;DHT22;3706;49.198;7.064;2022-12-17T05:04:46;-10.60;99.90
7331;DHT22;3706;49.198;7.064;2022-12-17T05:07:30;-10.70;99.90
7331;DHT22;3706;49.198;7.064;2022-12-17T05:10:15;-10.80;99.90
7331;DHT22;3706;49.198;7.064;2022-12-17T05:13:01;-10.70;99.90
7331;DHT22;3706;49.198;7.064;2022-12-17T05:15:46;-10.40;99.90
7331;DHT22;3706;49.198;7.064;2022-12-17T05:18:30;-10.20;99.90
7331;DHT22;3706;49.198;7.064;2022-12-17T05:21:15;-10.40;99.90
7331;DHT22;3706;49.198;7.064;2022-12-17T05:23:59;-10.60;99.90
7331;DHT22;3706;49.198;7.064;2022-12-17T05:26:44;-10.70;99.90
7331;DHT22;3706;49.198;7.064;2022-12-17T05:29:29;-10.80;99.90
7331;DHT22;3706;49.198;7.064;2022-12-17T05:32:13;-10.60;99.90
7331;DHT22;3706;49.198;7.064;2022-12-17T05:34:57;-10.60;99.90
7331;DHT22;3706;49.198;7.064;2022-12-17T05:37:42;-10.50;99.90
7331;DHT22;3706;49.198;7.064;2022-12-17T05:40:25;-10.60;99.90
7331;DHT22;3706;49.198;7.064;2022-12-17T05:43:11;-10.70;99.90
7331;DHT22;3706;49.198;7.064;2022-12-17T05:45:58;-10.60;99.90
7331;DHT22;3706;49.198;7.064;2022-12-17T05:48:42;-10.60;99.90
7331;DHT22;3706;49.198;7.064;2022-12-17T05:51:27;-10.50;99.90
7331;DHT22;3706;49.198;7.064;2022-12-17T05:54:11;-10.60;99.90
7331;DHT22;3706;49.198;7.064;2022-12-17T05:56:55;-10.70;99.90
7331;DHT22;3706;49.198;7.064;2022-12-17T05:59:39;-10.80;99.90
7331;DHT22;3706;49.198;7.064;2022-12-17T06:02:26;-10.70;99.90
7331;DHT22;3706;49.198;7.064;2022-12-17T06:05:11;-10.70;99.90
7331;DHT22;3706;49.198;7.064;2022-12-17T06:08:01;-10.80;99.90
7331;DHT22;3706;49.198;7.064;2022-12-17T06:10:46;-10.80;99.90
7331;DHT22;3706;49.198;7.064;2022-12-17T06:13:30;-10.70;99.90
7331;DHT22;3706;49.198;7.064;2022-12-17T06:16:14;-10.50;99.90
7331;DHT22;3706;49.198;7.064;2022-12-17T06:19:00;-10.40;99.90
7331;DHT22;3706;49.198;7.064;2022-12-17T06:21:44;-10.20;99.90
7331;DHT22;3706;49.198;7.064;2022-12-17T06:24:28;-10.30;99.90
7331;DHT22;3706;49.198;7.064;2022-12-17T06:27:12;-10.50;99.90
7331;DHT22;3706;49.198;7.064;2022-12-17T06:29:56;-10.60;99.90
7331;DHT22;3706;49.198;7.064;2022-12-17T06:32:40;-10.70;99.90
7331;DHT22;3706;49.198;7.064;2022-12-17T06:35:26;-10.70;99.90
7331;DHT22;3706;49.198;7.064;2022-12-17T06:38:10;-10.80;99.90
7331;DHT22;3706;49.198;7.064;2022-12-17T06:40:55;-10.80;99.90
7331;DHT22;3706;49.198;7.064;2022-12-17T06:43:39;-10.70;99.90
7331;DHT22;3706;49.198;7.064;2022-12-17T06:46:23;-10.60;99.90
7331;DHT22;3706;49.198;7.064;2022-12-17T06:49:07;-10.70;99.90
7331;DHT22;3706;49.198;7.064;2022-12-17T06:51:58;-10.80;99.90
7331;DHT22;3706;49.198;7.064;2022-12-17T06:54:43;-10.90;99.90
7331;DHT22;3706;49.198;7.064;2022-12-17T06:57:27;-10.90;99.90
7331;DHT22;3706;49.198;7.064;2022-12-17T07:00:12;-10.90;99.90
7331;DHT22;3706;49.198;7.064;2022-12-17T07:02:57;-10.80;99.90
7331;DHT22;3706;49.198;7.064;2022-12-17T07:05:46;-10.70;99.90
7331;DHT22;3706;49.198;7.064;2022-12-17T07:08:32;-10.60;99.90
7331;DHT22;3706;49.198;7.064;2022-12-17T07:11:17;-10.60;99.90
7331;DHT22;3706;49.198;7.064;2022-12-17T07:14:01;-10.30;99.90
7331;DHT22;3706;49.198;7.064;2022-12-17T07:16:45;-10.20;99.90
7331;DHT22;3706;49.198;7.064;2022-12-17T07:19:29;-10.20;99.90
7331;DHT22;3706;49.198;7.064;2022-12-17T07:22:14;-10.20;99.90
7331;DHT22;3706;49.198;7.064;2022-12-17T07:25:14;-10.30;99.90
7331;DHT22;3706;49.198;7.064;2022-12-17T07:27:58;-10.50;99.90
7331;DHT22;3706;49.198;7.064;2022-12-17T07:30:43;-10.60;99.90
7331;DHT22;3706;49.198;7.064;2022-12-17T07:33:27;-10.60;99.90
7331;DHT22;3706;49.198;7.064;2022-12-17T07:36:11;-10.60;99.90
7331;DHT22;3706;49.198;7.064;2022-12-17T07:38:55;-10.50;99.90
7331;DHT22;3706;49.198;7.064;2022-12-17T07:41:40;-10.70;99.90
7331;DHT22;3706;49.198;7.064;2022-12-17T07:44:25;-10.80;99.90
7331;DHT22;3706;49.198;7.064;2022-12-17T07:47:09;-10.90;99.90
7331;DHT22;3706;49.198;7.064;2022-12-17T07:49:53;-10.90;99.90
7331;DHT22;3706;49.198;7.064;2022-12-17T07:52:37;-10.90;99.90
7331;DHT22;3706;49.198;7.064;2022-12-17T07:55:18;-10.90;99.90
7331;DHT22;3706;49.198;7.064;2022-12-17T07:58:05;-10.80;99.90
7331;DHT22;3706;49.198;7.064;2022-12-17T08:00:50;-10.50;99.90
7331;DHT22;3706;49.198;7.064;2022-12-17T08:03:35;-10.10;99.90
7331;DHT22;3706;49.198;7.064;2022-12-17T08:06:19;-9.80;99.90
7331;DHT22;3706;49.198;7.064;2022-12-17T08:09:04;-9.60;99.90
7331;DHT22;3706;49.198;7.064;2022-12-17T08:11:48;-9.40;99.90
7331;DHT22;3706;49.198;7.064;2022-12-17T08:14:34;-9.30;99.90
7331;DHT22;3706;49.198;7.064;2022-12-17T08:17:18;-9.40;99.90
7331;DHT22;3706;49.198;7.064;2022-12-17T08:20:03;-9.50;99.90
7331;DHT22;3706;49.198;7.064;2022-12-17T08:22:48;-9.50;99.90
7331;DHT22;3706;49.198;7.064;2022-12-17T08:25:33;-9.40;99.90
7331;DHT22;3706;49.198;7.064;2022-12-17T08:28:17;-9.30;99.90
7331;DHT22;3706;49.198;7.064;2022-12-17T08:31:03;-9.20;99.90
7331;DHT22;3706;49.198;7.064;2022-12-17T08:33:47;-9.10;99.90
7331;DHT22;3706;49.198;7.064;2022-12-17T08:36:31;-9.00;99.90
7331;DHT22;3706;49.198;7.064;2022-12-17T08:39:15;-8.90;99.90
7331;DHT22;3706;49.198;7.064;2022-12-17T08:41:59;-8.80;99.90
7331;DHT22;3706;49.198;7.064;2022-12-17T08:44:43;-8.50;99.90
7331;DHT22;3706;49.198;7.064;2022-12-17T08:47:29;-8.20;99.90
7331;DHT22;3706;49.198;7.064;2022-12-17T08:50:14;-8.00;99.90
7331;DHT22;3706;49.198;7.064;2022-12-17T08:52:58;-7.70;99.90
7331;DHT22;3706;49.198;7.064;2022-12-17T08:55:43;-7.30;99.90
7331;DHT22;3706;49.198;7.064;2022-12-17T08:58:27;-7.00;99.90
7331;DHT22;3706;49.198;7.064;2022-12-17T09:01:11;-6.60;99.90
7331;DHT22;3706;49.198;7.064;2022-12-17T09:03:57;-6.20;99.90
7331;DHT22;3706;49.198;7.064;2022-12-17T09:06:42;-5.90;99.90
7331;DHT22;3706;49.198;7.064;2022-12-17T09:09:26;-5.50;99.90
7331;DHT22;3706;49.198;7.064;2022-12-17T09:12:10;-5.30;99.90
7331;DHT22;3706;49.198;7.064;2022-12-17T09:14:55;-4.90;99.90
7331;DHT22;3706;49.198;7.064;2022-12-17T09:17:39;-4.60;99.90
7331;DHT22;3706;49.198;7.064;2022-12-17T09:20:25;-4.40;99.90
7331;DHT22;3706;49.198;7.064;2022-12-17T09:23:09;-4.10;99.90
7331;DHT22;3706;49.198;7.064;2022-12-17T09:25:54;-3.90;99.90
7331;DHT22;3706;49.198;7.064;2022-12-17T09:28:39;-3.70;99.90
7331;DHT22;3706;49.198;7.064;2022-12-17T09:31:23;-3.50;99.90
7331;DHT22;3706;49.198;7.064;2022-12-17T09:34:07;-3.20;99.90
7331;DHT22;3706;49.198;7.064;2022-12-17T09:36:53;-2.90;99.90
7331;DHT22;3706;49.198;7.064;2022-12-17T09:39:46;-2.70;99.90
7331;DHT22;3706;49.198;7.064;2022-12-17T09:42:33;-2.40;99.90
7331;DHT22;3706;49.198;7.064;2022-12-17T09:45:22;-2.20;99.90
7331;DHT22;3706;49.198;7.064;2022-12-17T09:48:12;-2.00;99.90
7331;DHT22;3706;49.198;7.064;2022-12-17T09:50:59;-1.90;99.90
7331;DHT22;3706;49.198;7.064;2022-12-17T09:53:48;-1.90;99.90
7331;DHT22;3706;49.198;7.064;2022-12-17T09:56:34;-1.80;99.90
7331;DHT22;3706;49.198;7.064;2022-12-17T09:59:21;-1.70;99.90
7331;DHT22;3706;49.198;7.064;2022-12-17T10:02:13;-1.60;99.90
7331;DHT22;3706;49.198;7.064;2022-12-17T10:05:00;-1.50;99.90
7331;DHT22;3706;49.198;7.064;2022-12-17T10:07:46;-1.30;99.90
7331;DHT22;3706;49.198;7.064;2022-12-17T10:10:33;-1.20;99.90
7331;DHT22;3706;49.198;7.064;2022-12-17T10:13:21;-1.10;99.90
7331;DHT22;3706;49.198;7.064;2022-12-17T10:16:22;-1.00;99.90
7331;DHT22;3706;49.198;7.064;2022-12-17T10:19:12;-0.80;99.90
7331;DHT22;3706;49.198;7.064;2022-12-17T10:22:06;-0.70;99.90
7331;DHT22;3706;49.198;7.064;2022-12-17T10:24:50;-0.60;99.90
7331;DHT22;3706;49.198;7.064;2022-12-17T10:27:36;-0.50;99.90
7331;DHT22;3706;49.198;7.064;2022-12-17T10:30:21;-0.40;99.90
7331;DHT22;3706;49.198;7.064;2022-12-17T10:33:06;-0.30;99.90
7331;DHT22;3706;49.198;7.064;2022-12-17T10:35:51;-0.20;99.90
7331;DHT22;3706;49.198;7.064;2022-12-17T10:38:35;-0.10;99.90
7331;DHT22;3706;49.198;7.064;2022-12-17T10:41:21;-0.10;99.90
7331;DHT22;3706;49.198;7.064;2022-12-17T10:44:21;0.00;99.90
7331;DHT22;3706;49.198;7.064;2022-12-17T10:47:11;0.00;99.90
7331;DHT22;3706;49.198;7.064;2022-12-17T10:49:59;0.00;99.90
7331;DHT22;3706;49.198;7.064;2022-12-17T10:52:45;0.00;99.90
7331;DHT22;3706;49.198;7.064;2022-12-17T10:55:30;0.10;99.90
7331;DHT22;3706;49.198;7.064;2022-12-17T10:58:21;0.10;99.90
7331;DHT22;3706;49.198;7.064;2022-12-17T11:01:10;0.20;99.90
7331;DHT22;3706;49.198;7.064;2022-12-17T11:04:24;0.20;99.90
7331;DHT22;3706;49.198;7.064;2022-12-17T11:07:13;0.20;99.90
7331;DHT22;3706;49.198;7.064;2022-12-17T11:10:00;0.30;99.90
7331;DHT22;3706;49.198;7.064;2022-12-17T11:12:48;0.30;99.90
7331;DHT22;3706;49.198;7.064;2022-12-17T11:15:39;0.30;99.90
7331;DHT22;3706;49.198;7.064;2022-12-17T11:18:31;0.40;99.90
7331;DHT22;3706;49.198;7.064;2022-12-17T11:21:20;0.40;99.90
7331;DHT22;3706;49.198;7.064;2022-12-17T11:24:10;0.50;99.90
7331;DHT22;3706;49.198;7.064;2022-12-17T11:26:57;0.50;99.90
7331;DHT22;3706;49.198;7.064;2022-12-17T11:29:42;0.50;99.90
7331;DHT22;3706;49.198;7.064;2022-12-17T11:32:43;0.50;99.90
7331;DHT22;3706;49.198;7.064;2022-12-17T11:35:37;0.60;99.90
7331;DHT22;3706;49.198;7.064;2022-12-17T11:38:31;0.70;99.90
7331;DHT22;3706;49.198;7.064;2022-12-17T11:41:23;0.90;99.90
7331;DHT22;3706;49.198;7.064;2022-12-17T11:44:17;0.90;99.90
7331;DHT22;3706;49.198;7.064;2022-12-17T11:47:10;0.80;99.90
7331;DHT22;3706;49.198;7.064;2022-12-17T11:50:08;0.60;99.90
7331;DHT22;3706;49.198;7.064;2022-12-17T11:53:01;0.40;99.90
7331;DHT22;3706;49.198;7.064;2022-12-17T11:56:06;0.30;99.90
7331;DHT22;3706;49.198;7.064;2022-12-17T11:58:58;0.10;99.90
7331;DHT22;3706;49.198;7.064;2022-12-17T12:01:50;-0.10;99.90
7331;DHT22;3706;49.198;7.064;2022-12-17T12:04:56;-0.20;99.90
7331;DHT22;3706;49.198;7.064;2022-12-17T12:07:49;-0.30;99.90
7331;DHT22;3706;49.198;7.064;2022-12-17T12:10:41;-0.40;99.90
7331;DHT22;3706;49.198;7.064;2022-12-17T12:13:32;-0.60;99.90
7331;DHT22;3706;49.198;7.064;2022-12-17T12:16:24;-0.70;99.90
7331;DHT22;3706;49.198;7.064;2022-12-17T12:19:17;-0.70;99.90
7331;DHT22;3706;49.198;7.064;2022-12-17T12:22:07;-0.70;99.90
7331;DHT22;3706;49.198;7.064;2022-12-17T12:25:15;-0.60;99.90
7331;DHT22;3706;49.198;7.064;2022-12-17T12:28:10;-0.60;99.90
7331;DHT22;3706;49.198;7.064;2022-12-17T12:31:07;-0.70;99.90
7331;DHT22;3706;49.198;7.064;2022-12-17T12:33:59;-0.70;99.90
7331;DHT22;3706;49.198;7.064;2022-12-17T12:36:44;-0.80;99.90
7331;DHT22;3706;49.198;7.064;2022-12-17T12:39:35;-0.90;99.90
7331;DHT22;3706;49.198;7.064;2022-12-17T12:42:25;-1.00;99.90
7331;DHT22;3706;49.198;7.064;2022-12-17T12:45:27;-1.10;99.90
7331;DHT22;3706;49.198;7.064;2022-12-17T12:48:29;-1.10;99.90
7331;DHT22;3706;49.198;7.064;2022-12-17T12:51:19;-1.10;99.90
7331;DHT22;3706;49.198;7.064;2022-12-17T12:54:25;-1.10;99.90
7331;DHT22;3706;49.198;7.064;2022-12-17T12:57:30;-1.20;99.90
7331;DHT22;3706;49.198;7.064;2022-12-17T13:00:36;-1.30;99.90
7331;DHT22;3706;49.198;7.064;2022-12-17T13:03:25;-1.30;99.90
7331;DHT22;3706;49.198;7.064;2022-12-17T13:06:12;-1.30;99.90
7331;DHT22;3706;49.198;7.064;2022-12-17T13:08:41;-1.40;99.90
7331;DHT22;3706;49.198;7.064;2022-12-17T13:11:11;-1.50;99.90
7331;DHT22;3706;49.198;7.064;2022-12-17T13:13:48;-1.50;99.90
7331;DHT22;3706;49.198;7.064;2022-12-17T13:16:34;-1.50;99.90
7331;DHT22;3706;49.198;7.064;2022-12-17T13:19:14;-1.50;99.90
7331;DHT22;3706;49.198;7.064;2022-12-17T13:21:42;-1.50;99.90
7331;DHT22;3706;49.198;7.064;2022-12-17T13:24:10;-1.50;99.90
7331;DHT22;3706;49.198;7.064;2022-12-17T13:26:44;-1.50;99.90
7331;DHT22;3706;49.198;7.064;2022-12-17T13:29:20;-1.40;99.90
7331;DHT22;3706;49.198;7.064;2022-12-17T13:32:01;-1.40;99.90
7331;DHT22;3706;49.198;7.064;2022-12-17T13:34:38;-1.40;99.90
7331;DHT22;3706;49.198;7.064;2022-12-17T13:37:13;-1.40;99.90
7331;DHT22;3706;49.198;7.064;2022-12-17T13:39:47;-1.40;99.90
7331;DHT22;3706;49.198;7.064;2022-12-17T13:42:19;-1.40;99.90
7331;DHT22;3706;49.198;7.064;2022-12-17T13:44:49;-1.40;99.90
7331;DHT22;3706;49.198;7.064;2022-12-17T13:47:26;-1.30;99.90
7331;DHT22;3706;49.198;7.064;2022-12-17T13:49:54;-1.30;99.90
7331;DHT22;3706;49.198;7.064;2022-12-17T13:52:23;-1.30;99.90
7331;DHT22;3706;49.198;7.064;2022-12-17T13:55:04;-1.30;99.90
7331;DHT22;3706;49.198;7.064;2022-12-17T13:57:31;-1.30;99.90
7331;DHT22;3706;49.198;7.064;2022-12-17T13:59:59;-1.40;99.90
7331;DHT22;3706;49.198;7.064;2022-12-17T14:02:29;-1.40;99.90
7331;DHT22;3706;49.198;7.064;2022-12-17T14:05:01;-1.40;99.90
7331;DHT22;3706;49.198;7.064;2022-12-17T14:07:28;-1.40;99.90
7331;DHT22;3706;49.198;7.064;2022-12-17T14:09:56;-1.40;99.90
7331;DHT22;3706;49.198;7.064;2022-12-17T14:12:25;-1.40;99.90
7331;DHT22;3706;49.198;7.064;2022-12-17T14:14:56;-1.40;99.90
7331;DHT22;3706;49.198;7.064;2022-12-17T14:17:26;-1.40;99.90
7331;DHT22;3706;49.198;7.064;2022-12-17T14:19:59;-1.40;99.90
7331;DHT22;3706;49.198;7.064;2022-12-17T14:22:32;-1.30;99.90
7331;DHT22;3706;49.198;7.064;2022-12-17T14:25:01;-1.30;99.90
7331;DHT22;3706;49.198;7.064;2022-12-17T14:27:32;-1.20;99.90
7331;DHT22;3706;49.198;7.064;2022-12-17T14:30:00;-1.30;99.90
7331;DHT22;3706;49.198;7.064;2022-12-17T14:32:32;-1.40;99.90
7331;DHT22;3706;49.198;7.064;2022-12-17T14:35:02;-1.50;99.90
7331;DHT22;3706;49.198;7.064;2022-12-17T14:37:29;-1.60;99.90
7331;DHT22;3706;49.198;7.064;2022-12-17T14:40:01;-1.60;99.90
7331;DHT22;3706;49.198;7.064;2022-12-17T14:42:30;-1.70;99.90
7331;DHT22;3706;49.198;7.064;2022-12-17T14:45:03;-1.70;99.90
7331;DHT22;3706;49.198;7.064;2022-12-17T14:47:32;-1.50;99.90
7331;DHT22;3706;49.198;7.064;2022-12-17T14:50:05;-1.60;99.90
7331;DHT22;3706;49.198;7.064;2022-12-17T14:52:38;-1.60;99.90
7331;DHT22;3706;49.198;7.064;2022-12-17T14:55:30;-1.60;99.90
7331;DHT22;3706;49.198;7.064;2022-12-17T14:58:19;-1.60;99.90
7331;DHT22;3706;49.198;7.064;2022-12-17T15:00:49;-1.70;99.90
7331;DHT22;3706;49.198;7.064;2022-12-17T15:03:22;-1.80;99.90
7331;DHT22;3706;49.198;7.064;2022-12-17T15:05:55;-2.00;99.90
7331;DHT22;3706;49.198;7.064;2022-12-17T15:08:24;-2.20;99.90
7331;DHT22;3706;49.198;7.064;2022-12-17T15:10:55;-2.40;99.90
7331;DHT22;3706;49.198;7.064;2022-12-17T15:13:24;-2.60;99.90
7331;DHT22;3706;49.198;7.064;2022-12-17T15:15:52;-2.80;99.90
7331;DHT22;3706;49.198;7.064;2022-12-17T15:18:21;-2.90;99.90
7331;DHT22;3706;49.198;7.064;2022-12-17T15:20:48;-3.00;99.90
7331;DHT22;3706;49.198;7.064;2022-12-17T15:23:19;-3.10;99.90
7331;DHT22;3706;49.198;7.064;2022-12-17T15:25:48;-3.20;99.90
7331;DHT22;3706;49.198;7.064;2022-12-17T15:28:17;-3.20;99.90
7331;DHT22;3706;49.198;7.064;2022-12-17T15:30:45;-3.40;99.90
7331;DHT22;3706;49.198;7.064;2022-12-17T15:33:13;-3.60;99.90
7331;DHT22;3706;49.198;7.064;2022-12-17T15:35:40;-3.70;99.90
7331;DHT22;3706;49.198;7.064;2022-12-17T15:38:08;-3.80;99.90
7331;DHT22;3706;49.198;7.064;2022-12-17T15:40:37;-3.90;99.90
7331;DHT22;3706;49.198;7.064;2022-12-17T15:43:04;-4.00;99.90
7331;DHT22;3706;49.198;7.064;2022-12-17T15:45:39;-4.10;99.90
7331;DHT22;3706;49.198;7.064;2022-12-17T15:48:06;-4.20;99.90
7331;DHT22;3706;49.198;7.064;2022-12-17T15:50:34;-4.30;99.90
7331;DHT22;3706;49.198;7.064;2022-12-17T15:53:01;-4.40;99.90
7331;DHT22;3706;49.198;7.064;2022-12-17T15:55:28;-4.50;99.90
7331;DHT22;3706;49.198;7.064;2022-12-17T15:57:57;-4.70;99.90
7331;DHT22;3706;49.198;7.064;2022-12-17T16:00:24;-4.80;99.90
7331;DHT22;3706;49.198;7.064;2022-12-17T16:02:51;-4.90;99.90
7331;DHT22;3706;49.198;7.064;2022-12-17T16:05:19;-5.00;99.90
7331;DHT22;3706;49.198;7.064;2022-12-17T16:07:48;-5.10;99.90
7331;DHT22;3706;49.198;7.064;2022-12-17T16:10:15;-5.10;99.90
7331;DHT22;3706;49.198;7.064;2022-12-17T16:12:42;-5.20;99.90
7331;DHT22;3706;49.198;7.064;2022-12-17T16:15:11;-5.20;99.90
7331;DHT22;3706;49.198;7.064;2022-12-17T16:17:39;-5.30;99.90
7331;DHT22;3706;49.198;7.064;2022-12-17T16:20:07;-5.40;99.90
7331;DHT22;3706;49.198;7.064;2022-12-17T16:22:34;-5.50;99.90
7331;DHT22;3706;49.198;7.064;2022-12-17T16:25:01;-5.50;99.90
7331;DHT22;3706;49.198;7.064;2022-12-17T16:27:28;-5.50;99.90
7331;DHT22;3706;49.198;7.064;2022-12-17T16:29:55;-5.60;99.90
7331;DHT22;3706;49.198;7.064;2022-12-17T16:32:23;-5.60;99.90
7331;DHT22;3706;49.198;7.064;2022-12-17T16:34:50;-5.60;99.90
7331;DHT22;3706;49.198;7.064;2022-12-17T16:37:20;-5.70;99.90
7331;DHT22;3706;49.198;7.064;2022-12-17T16:39:46;-5.80;99.90
7331;DHT22;3706;49.198;7.064;2022-12-17T16:42:15;-5.90;99.90
7331;DHT22;3706;49.198;7.064;2022-12-17T16:44:42;-5.90;99.90
7331;DHT22;3706;49.198;7.064;2022-12-17T16:47:09;-5.90;99.90
7331;DHT22;3706;49.198;7.064;2022-12-17T16:49:37;-6.00;99.90
7331;DHT22;3706;49.198;7.064;2022-12-17T16:52:04;-6.10;99.90
7331;DHT22;3706;49.198;7.064;2022-12-17T16:54:32;-6.20;99.90
7331;DHT22;3706;49.198;7.064;2022-12-17T16:56:59;-6.30;99.90
7331;DHT22;3706;49.198;7.064;2022-12-17T16:59:26;-6.30;99.90
7331;DHT22;3706;49.198;7.064;2022-12-17T17:01:54;-6.40;99.90
7331;DHT22;3706;49.198;7.064;2022-12-17T17:04:22;-6.50;99.90
7331;DHT22;3706;49.198;7.064;2022-12-17T17:06:52;-6.50;99.90
7331;DHT22;3706;49.198;7.064;2022-12-17T17:09:20;-6.60;99.90
7331;DHT22;3706;49.198;7.064;2022-12-17T17:11:48;-6.70;99.90
7331;DHT22;3706;49.198;7.064;2022-12-17T17:14:15;-6.70;99.90
7331;DHT22;3706;49.198;7.064;2022-12-17T17:16:42;-6.80;99.90
7331;DHT22;3706;49.198;7.064;2022-12-17T17:19:09;-6.80;99.90
7331;DHT22;3706;49.198;7.064;2022-12-17T17:21:37;-6.90;99.90
7331;DHT22;3706;49.198;7.064;2022-12-17T17:24:09;-6.90;99.90
7331;DHT22;3706;49.198;7.064;2022-12-17T17:26:37;-6.80;99.90
7331;DHT22;3706;49.198;7.064;2022-12-17T17:29:04;-6.80;99.90
7331;DHT22;3706;49.198;7.064;2022-12-17T17:31:32;-6.80;99.90
7331;DHT22;3706;49.198;7.064;2022-12-17T17:33:59;-6.80;99.90
7331;DHT22;3706;49.198;7.064;2022-12-17T17:36:30;-6.90;99.90